sensor_id;sensor_type;location;lat;lon;timestamp;pressure;altitude;pressure_sealevel;temperature;humidity
27712;BME280;2377;51.734;8.950;2023-04-02T00:00:18;97124.47;;;5.92;100.00
27712;BME280;2377;51.734;8.950;2023-04-02T00:02:54;97120.81;;;5.95;100.00
27712;BME280;2377;51.734;8.950;2023-04-02T00:05:37;97127.00;;;5.92;100.00
27712;BME280;2377;51.734;8.950;2023-04-02T00:08:28;97130.16;;;5.88;100.00
27712;BME280;2377;51.734;8.950;2023-04-02T00:11:04;97131.13;;;5.87;100.00
27712;BME280;2377;51.734;8.950;2023-04-02T00:13:35;97138.72;;;5.87;100.00
27712;BME280;2377;51.734;8.950;2023-04-02T00:16:06;97144.19;;;5.84;100.00
27712;BME280;2377;51.734;8.950;2023-04-02T00:18:41;97143.81;;;5.80;100.00
27712;BME280;2377;51.734;8.950;2023-04-02T00:21:18;97153.19;;;5.80;100.00
27712;BME280;2377;51.734;8.950;2023-04-02T00:23:49;97148.88;;;5.73;100.00
27712;BME280;2377;51.734;8.950;2023-04-02T00:26:29;97165.66;;;5.75;100.00
27712;BME280;2377;51.734;8.950;2023-04-02T00:28:56;97168.41;;;5.66;100.00
27712;BME280;2377;51.734;8.950;2023-04-02T00:31:24;97160.78;;;5.66;100.00
27712;BME280;2377;51.734;8.950;2023-04-02T00:33:53;97165.84;;;5.66;100.00
27712;BME280;2377;51.734;8.950;2023-04-02T00:36:23;97180.88;;;5.61;100.00
27712;BME280;2377;51.734;8.950;2023-04-02T00:38:57;97185.34;;;5.53;100.00
27712;BME280;2377;51.734;8.950;2023-04-02T00:41:29;97198.63;;;5.61;100.00
27712;BME280;2377;51.734;8.950;2023-04-02T00:43:58;97189.47;;;5.60;100.00
27712;BME280;2377;51.734;8.950;2023-04-02T00:46:30;97189.66;;;5.59;100.00
27712;BME280;2377;51.734;8.950;2023-04-02T00:49:05;97195.91;;;5.56;100.00
27712;BME280;2377;51.734;8.950;2023-04-02T00:51:36;97200.59;;;5.46;100.00
27712;BME280;2377;51.734;8.950;2023-04-02T00:54:11;97202.72;;;5.49;100.00
27712;BME280;2377;51.734;8.950;2023-04-02T00:56:44;97208.56;;;5.43;100.00
27712;BME280;2377;51.734;8.950;2023-04-02T00:59:21;97215.19;;;5.44;100.00
27712;BME280;2377;51.734;8.950;2023-04-02T01:01:52;97206.03;;;5.36;100.00
27712;BME280;2377;51.734;8.950;2023-04-02T01:04:33;97217.31;;;5.34;100.00
27712;BME280;2377;51.734;8.950;2023-04-02T01:07:08;97223.38;;;5.33;100.00
27712;BME280;2377;51.734;8.950;2023-04-02T01:10:12;97228.81;;;5.16;100.00
27712;BME280;2377;51.734;8.950;2023-04-02T01:12:55;97233.09;;;5.16;100.00
27712;BME280;2377;51.734;8.950;2023-04-02T01:15:32;97234.47;;;5.18;100.00
27712;BME280;2377;51.734;8.950;2023-04-02T01:18:32;97243.78;;;5.11;100.00
27712;BME280;2377;51.734;8.950;2023-04-02T01:21:39;97235.78;;;5.07;100.00
27712;BME280;2377;51.734;8.950;2023-04-02T01:24:10;97248.25;;;5.02;100.00
27712;BME280;2377;51.734;8.950;2023-04-02T01:26:49;97252.75;;;5.07;100.00
27712;BME280;2377;51.734;8.950;2023-04-02T01:29:23;97261.09;;;5.01;100.00
27712;BME280;2377;51.734;8.950;2023-04-02T01:31:54;97270.25;;;5.02;100.00
27712;BME280;2377;51.734;8.950;2023-04-02T01:34:26;97258.75;;;4.99;100.00
27712;BME280;2377;51.734;8.950;2023-04-02T01:37:12;97270.41;;;4.94;100.00
27712;BME280;2377;51.734;8.950;2023-04-02T01:40:08;97276.63;;;4.91;100.00
27712;BME280;2377;51.734;8.950;2023-04-02T01:42:50;97284.44;;;4.90;100.00
27712;BME280;2377;51.734;8.950;2023-04-02T01:45:22;97293.75;;;4.82;100.00
27712;BME280;2377;51.734;8.950;2023-04-02T01:47:50;97298.06;;;4.88;100.00
27712;BME280;2377;51.734;8.950;2023-04-02T01:50:26;97311.69;;;4.87;100.00
27712;BME280;2377;51.734;8.950;2023-04-02T01:52:59;97301.94;;;4.84;100.00
27712;BME280;2377;51.734;8.950;2023-04-02T01:55:36;97301.72;;;4.79;100.00
27712;BME280;2377;51.734;8.950;2023-04-02T01:58:05;97324.50;;;4.79;100.00
27712;BME280;2377;51.734;8.950;2023-04-02T02:00:38;97320.94;;;4.67;100.00
27712;BME280;2377;51.734;8.950;2023-04-02T02:03:10;97320.16;;;4.66;100.00
27712;BME280;2377;51.734;8.950;2023-04-02T02:05:38;97330.69;;;4.70;100.00
27712;BME280;2377;51.734;8.950;2023-04-02T02:08:30;97334.75;;;4.64;100.00
27712;BME280;2377;51.734;8.950;2023-04-02T02:10:58;97335.34;;;4.66;100.00
27712;BME280;2377;51.734;8.950;2023-04-02T02:13:26;97339.44;;;4.68;100.00
27712;BME280;2377;51.734;8.950;2023-04-02T02:15:57;97334.53;;;4.59;100.00
27712;BME280;2377;51.734;8.950;2023-04-02T02:18:25;97346.78;;;4.62;100.00
27712;BME280;2377;51.734;8.950;2023-04-02T02:20:53;97351.31;;;4.67;100.00
27712;BME280;2377;51.734;8.950;2023-04-02T02:23:22;97357.53;;;4.64;100.00
27712;BME280;2377;51.734;8.950;2023-04-02T02:25:50;97364.47;;;4.56;100.00
27712;BME280;2377;51.734;8.950;2023-04-02T02:28:24;97369.13;;;4.52;100.00
27712;BME280;2377;51.734;8.950;2023-04-02T02:30:58;97372.59;;;4.44;100.00
27712;BME280;2377;51.734;8.950;2023-04-02T02:33:33;97379.81;;;4.48;100.00
27712;BME280;2377;51.734;8.950;2023-04-02T02:36:07;97385.22;;;4.44;100.00
27712;BME280;2377;51.734;8.950;2023-04-02T02:38:49;97390.84;;;4.40;100.00
27712;BME280;2377;51.734;8.950;2023-04-02T02:41:25;97407.13;;;4.37;100.00
27712;BME280;2377;51.734;8.950;2023-04-02T02:44:02;97398.59;;;4.38;100.00
27712;BME280;2377;51.734;8.950;2023-04-02T02:46:34;97401.31;;;4.37;100.00
27712;BME280;2377;51.734;8.950;2023-04-02T02:49:05;97405.91;;;4.27;100.00
27712;BME280;2377;51.734;8.950;2023-04-02T02:51:41;97413.25;;;4.21;100.00
27712;BME280;2377;51.734;8.950;2023-04-02T02:54:10;97418.72;;;4.25;100.00
27712;BME280;2377;51.734;8.950;2023-04-02T02:56:43;97413.59;;;4.18;100.00
27712;BME280;2377;51.734;8.950;2023-04-02T02:59:14;97416.66;;;4.14;100.00
27712;BME280;2377;51.734;8.950;2023-04-02T03:01:44;97424.47;;;4.12;100.00
27712;BME280;2377;51.734;8.950;2023-04-02T03:04:13;97432.22;;;4.11;100.00
27712;BME280;2377;51.734;8.950;2023-04-02T03:06:48;97440.78;;;4.10;100.00
27712;BME280;2377;51.734;8.950;2023-04-02T03:09:30;97432.94;;;4.05;100.00
27712;BME280;2377;51.734;8.950;2023-04-02T03:12:06;97438.78;;;4.05;100.00
27712;BME280;2377;51.734;8.950;2023-04-02T03:14:43;97445.16;;;4.01;100.00
27712;BME280;2377;51.734;8.950;2023-04-02T03:17:19;97444.91;;;3.96;100.00
27712;BME280;2377;51.734;8.950;2023-04-02T03:19:55;97452.66;;;3.94;100.00
27712;BME280;2377;51.734;8.950;2023-04-02T03:22:31;97464.09;;;3.90;100.00
27712;BME280;2377;51.734;8.950;2023-04-02T03:25:09;97462.28;;;3.84;100.00
27712;BME280;2377;51.734;8.950;2023-04-02T03:27:43;97465.75;;;3.83;100.00
27712;BME280;2377;51.734;8.950;2023-04-02T03:30:28;97470.03;;;3.83;100.00
27712;BME280;2377;51.734;8.950;2023-04-02T03:33:03;97477.63;;;3.83;100.00
27712;BME280;2377;51.734;8.950;2023-04-02T03:35:38;97492.69;;;3.76;100.00
27712;BME280;2377;51.734;8.950;2023-04-02T03:38:15;97489.03;;;3.78;100.00
27712;BME280;2377;51.734;8.950;2023-04-02T03:40:58;97501.50;;;3.80;100.00
27712;BME280;2377;51.734;8.950;2023-04-02T03:43:31;97502.13;;;3.82;100.00
27712;BME280;2377;51.734;8.950;2023-04-02T03:46:16;97505.69;;;3.73;100.00
27712;BME280;2377;51.734;8.950;2023-04-02T03:48:53;97511.72;;;3.72;100.00
27712;BME280;2377;51.734;8.950;2023-04-02T03:51:26;97517.91;;;3.69;100.00
27712;BME280;2377;51.734;8.950;2023-04-02T03:53:56;97531.66;;;3.67;100.00
27712;BME280;2377;51.734;8.950;2023-04-02T03:56:28;97543.72;;;3.65;100.00
27712;BME280;2377;51.734;8.950;2023-04-02T03:59:09;97540.22;;;3.66;100.00
27712;BME280;2377;51.734;8.950;2023-04-02T04:01:45;97552.69;;;3.67;100.00
27712;BME280;2377;51.734;8.950;2023-04-02T04:04:18;97555.03;;;3.69;100.00
27712;BME280;2377;51.734;8.950;2023-04-02T04:06:50;97555.81;;;3.69;100.00
27712;BME280;2377;51.734;8.950;2023-04-02T04:09:24;97568.63;;;3.68;100.00
27712;BME280;2377;51.734;8.950;2023-04-02T04:12:04;97567.84;;;3.67;100.00
27712;BME280;2377;51.734;8.950;2023-04-02T04:14:36;97570.91;;;3.63;100.00
27712;BME280;2377;51.734;8.950;2023-04-02T04:17:15;97579.09;;;3.65;100.00
27712;BME280;2377;51.734;8.950;2023-04-02T04:19:58;97588.84;;;3.68;100.00
27712;BME280;2377;51.734;8.950;2023-04-02T04:22:33;97585.53;;;3.67;100.00
27712;BME280;2377;51.734;8.950;2023-04-02T04:25:03;97601.63;;;3.66;100.00
27712;BME280;2377;51.734;8.950;2023-04-02T04:27:41;97609.41;;;3.65;100.00
27712;BME280;2377;51.734;8.950;2023-04-02T04:30:16;97601.53;;;3.59;100.00
27712;BME280;2377;51.734;8.950;2023-04-02T04:32:53;97615.50;;;3.55;100.00
27712;BME280;2377;51.734;8.950;2023-04-02T04:35:30;97619.31;;;3.51;100.00
27712;BME280;2377;51.734;8.950;2023-04-02T04:38:04;97625.00;;;3.53;100.00
27712;BME280;2377;51.734;8.950;2023-04-02T04:40:35;97635.09;;;3.53;100.00
27712;BME280;2377;51.734;8.950;2023-04-02T04:43:11;97638.75;;;3.51;100.00
27712;BME280;2377;51.734;8.950;2023-04-02T04:45:45;97645.88;;;3.47;100.00
27712;BME280;2377;51.734;8.950;2023-04-02T04:48:19;97647.16;;;3.43;100.00
27712;BME280;2377;51.734;8.950;2023-04-02T04:50:53;97663.28;;;3.42;100.00
27712;BME280;2377;51.734;8.950;2023-04-02T04:53:24;97673.13;;;3.37;100.00
27712;BME280;2377;51.734;8.950;2023-04-02T04:55:53;97658.97;;;3.28;100.00
27712;BME280;2377;51.734;8.950;2023-04-02T04:58:25;97669.50;;;3.31;100.00
27712;BME280;2377;51.734;8.950;2023-04-02T05:01:00;97672.03;;;3.31;100.00
27712;BME280;2377;51.734;8.950;2023-04-02T05:03:34;97693.50;;;3.35;100.00
27712;BME280;2377;51.734;8.950;2023-04-02T05:06:10;97687.66;;;3.35;100.00
27712;BME280;2377;51.734;8.950;2023-04-02T05:08:44;97692.69;;;3.35;100.00
27712;BME280;2377;51.734;8.950;2023-04-02T05:11:22;97693.56;;;3.27;100.00
27712;BME280;2377;51.734;8.950;2023-04-02T05:13:57;97704.94;;;3.23;100.00
27712;BME280;2377;51.734;8.950;2023-04-02T05:16:30;97713.91;;;3.26;100.00
27712;BME280;2377;51.734;8.950;2023-04-02T05:19:07;97715.97;;;3.22;100.00
27712;BME280;2377;51.734;8.950;2023-04-02T05:21:42;97721.84;;;3.23;100.00
27712;BME280;2377;51.734;8.950;2023-04-02T05:24:50;97726.75;;;3.16;100.00
27712;BME280;2377;51.734;8.950;2023-04-02T05:27:36;97735.19;;;3.08;100.00
27712;BME280;2377;51.734;8.950;2023-04-02T05:30:27;97744.47;;;3.08;100.00
27712;BME280;2377;51.734;8.950;2023-04-02T05:33:01;97751.44;;;3.06;100.00
27712;BME280;2377;51.734;8.950;2023-04-02T05:35:32;97754.56;;;3.08;100.00
27712;BME280;2377;51.734;8.950;2023-04-02T05:38:03;97755.38;;;3.08;100.00
27712;BME280;2377;51.734;8.950;2023-04-02T05:40:37;97768.00;;;3.08;100.00
27712;BME280;2377;51.734;8.950;2023-04-02T05:43:08;97773.69;;;3.02;100.00
27712;BME280;2377;51.734;8.950;2023-04-02T05:45:39;97771.72;;;2.89;100.00
27712;BME280;2377;51.734;8.950;2023-04-02T05:48:16;97773.13;;;2.84;100.00
27712;BME280;2377;51.734;8.950;2023-04-02T05:50:48;97771.09;;;2.87;100.00
27712;BME280;2377;51.734;8.950;2023-04-02T05:53:24;97782.28;;;2.85;100.00
27712;BME280;2377;51.734;8.950;2023-04-02T05:55:58;97789.97;;;2.91;100.00
27712;BME280;2377;51.734;8.950;2023-04-02T05:58:35;97785.91;;;2.90;100.00
27712;BME280;2377;51.734;8.950;2023-04-02T06:01:24;97793.31;;;2.84;100.00
27712;BME280;2377;51.734;8.950;2023-04-02T06:04:05;97794.91;;;2.85;100.00
27712;BME280;2377;51.734;8.950;2023-04-02T06:06:50;97803.09;;;2.87;100.00
27712;BME280;2377;51.734;8.950;2023-04-02T06:09:33;97807.34;;;2.86;100.00
27712;BME280;2377;51.734;8.950;2023-04-02T06:12:16;97811.78;;;2.84;100.00
27712;BME280;2377;51.734;8.950;2023-04-02T06:14:44;97818.72;;;2.82;100.00
27712;BME280;2377;51.734;8.950;2023-04-02T06:17:14;97823.28;;;2.87;100.00
27712;BME280;2377;51.734;8.950;2023-04-02T06:19:42;97832.28;;;2.89;100.00
27712;BME280;2377;51.734;8.950;2023-04-02T06:22:21;97840.31;;;2.93;100.00
27712;BME280;2377;51.734;8.950;2023-04-02T06:24:56;97834.31;;;2.94;100.00
27712;BME280;2377;51.734;8.950;2023-04-02T06:27:26;97844.25;;;2.95;100.00
27712;BME280;2377;51.734;8.950;2023-04-02T06:30:00;97855.94;;;2.96;100.00
27712;BME280;2377;51.734;8.950;2023-04-02T06:32:28;97860.66;;;3.00;100.00
27712;BME280;2377;51.734;8.950;2023-04-02T06:34:56;97852.94;;;2.93;100.00
27712;BME280;2377;51.734;8.950;2023-04-02T06:37:29;97866.19;;;2.95;100.00
27712;BME280;2377;51.734;8.950;2023-04-02T06:40:00;97872.50;;;2.91;100.00
27712;BME280;2377;51.734;8.950;2023-04-02T06:42:33;97875.81;;;2.91;100.00
27712;BME280;2377;51.734;8.950;2023-04-02T06:45:02;97881.03;;;2.90;100.00
27712;BME280;2377;51.734;8.950;2023-04-02T06:47:34;97890.66;;;2.94;100.00
27712;BME280;2377;51.734;8.950;2023-04-02T06:50:09;97886.53;;;2.93;100.00
27712;BME280;2377;51.734;8.950;2023-04-02T06:52:45;97897.72;;;2.91;100.00
27712;BME280;2377;51.734;8.950;2023-04-02T06:55:30;97910.34;;;2.91;100.00
27712;BME280;2377;51.734;8.950;2023-04-02T06:57:58;97918.22;;;2.96;100.00
27712;BME280;2377;51.734;8.950;2023-04-02T07:00:31;97922.69;;;2.94;100.00
27712;BME280;2377;51.734;8.950;2023-04-02T07:03:04;97929.28;;;2.95;100.00
27712;BME280;2377;51.734;8.950;2023-04-02T07:05:31;97940.34;;;2.94;100.00
27712;BME280;2377;51.734;8.950;2023-04-02T07:07:58;97945.69;;;2.91;100.00
27712;BME280;2377;51.734;8.950;2023-04-02T07:10:27;97945.69;;;2.91;100.00
27712;BME280;2377;51.734;8.950;2023-04-02T07:12:54;97956.13;;;2.88;100.00
27712;BME280;2377;51.734;8.950;2023-04-02T07:15:21;97960.38;;;2.87;99.90
27712;BME280;2377;51.734;8.950;2023-04-02T07:17:50;97962.09;;;2.95;100.00
27712;BME280;2377;51.734;8.950;2023-04-02T07:20:27;97968.72;;;2.96;100.00
27712;BME280;2377;51.734;8.950;2023-04-02T07:22:55;97979.78;;;2.95;100.00
27712;BME280;2377;51.734;8.950;2023-04-02T07:25:23;97978.81;;;2.96;98.94
27712;BME280;2377;51.734;8.950;2023-04-02T07:27:53;97994.94;;;2.95;99.93
27712;BME280;2377;51.734;8.950;2023-04-02T07:30:21;97999.97;;;2.95;99.41
27712;BME280;2377;51.734;8.950;2023-04-02T07:32:48;97992.53;;;2.93;99.93
27712;BME280;2377;51.734;8.950;2023-04-02T07:35:15;98005.00;;;2.87;99.22
27712;BME280;2377;51.734;8.950;2023-04-02T07:37:42;98006.44;;;2.97;99.13
27712;BME280;2377;51.734;8.950;2023-04-02T07:40:16;98012.28;;;2.98;99.35
27712;BME280;2377;51.734;8.950;2023-04-02T07:42:43;98020.81;;;2.97;98.84
27712;BME280;2377;51.734;8.950;2023-04-02T07:45:13;98017.78;;;2.93;98.16
27712;BME280;2377;51.734;8.950;2023-04-02T07:47:40;98021.59;;;2.97;98.66
27712;BME280;2377;51.734;8.950;2023-04-02T07:50:09;98038.16;;;3.00;98.99
27712;BME280;2377;51.734;8.950;2023-04-02T07:52:39;98042.56;;;2.98;98.25
27712;BME280;2377;51.734;8.950;2023-04-02T07:55:08;98043.06;;;3.02;98.09
27712;BME280;2377;51.734;8.950;2023-04-02T07:57:37;98042.72;;;3.05;99.12
27712;BME280;2377;51.734;8.950;2023-04-02T08:00:09;98056.31;;;3.04;98.40
27712;BME280;2377;51.734;8.950;2023-04-02T08:02:38;98055.84;;;3.08;97.85
27712;BME280;2377;51.734;8.950;2023-04-02T08:05:06;98065.63;;;3.11;97.55
27712;BME280;2377;51.734;8.950;2023-04-02T08:07:35;98065.63;;;3.11;98.14
27712;BME280;2377;51.734;8.950;2023-04-02T08:10:05;98069.06;;;3.10;98.50
27712;BME280;2377;51.734;8.950;2023-04-02T08:12:33;98073.50;;;3.08;96.92
27712;BME280;2377;51.734;8.950;2023-04-02T08:15:01;98076.66;;;3.10;96.81
27712;BME280;2377;51.734;8.950;2023-04-02T08:17:28;98079.81;;;3.12;97.60
27712;BME280;2377;51.734;8.950;2023-04-02T08:19:58;98083.44;;;3.10;97.12
27712;BME280;2377;51.734;8.950;2023-04-02T08:22:26;98088.00;;;3.14;96.82
27712;BME280;2377;51.734;8.950;2023-04-02T08:24:53;98088.50;;;3.26;98.40
27712;BME280;2377;51.734;8.950;2023-04-02T08:27:21;98097.78;;;3.34;97.49
27712;BME280;2377;51.734;8.950;2023-04-02T08:29:48;98098.28;;;3.37;97.68
27712;BME280;2377;51.734;8.950;2023-04-02T08:32:16;98106.16;;;3.43;97.86
27712;BME280;2377;51.734;8.950;2023-04-02T08:34:44;98111.72;;;3.46;97.21
27712;BME280;2377;51.734;8.950;2023-04-02T08:37:13;98115.47;;;3.50;96.66
27712;BME280;2377;51.734;8.950;2023-04-02T08:39:40;98112.66;;;3.53;96.79
27712;BME280;2377;51.734;8.950;2023-04-02T08:42:21;98118.19;;;3.49;95.64
27712;BME280;2377;51.734;8.950;2023-04-02T08:45:10;98130.81;;;3.49;96.40
27712;BME280;2377;51.734;8.950;2023-04-02T08:47:48;98135.38;;;3.45;96.26
27712;BME280;2377;51.734;8.950;2023-04-02T08:50:28;98132.69;;;3.47;96.32
27712;BME280;2377;51.734;8.950;2023-04-02T08:53:00;98141.69;;;3.49;95.66
27712;BME280;2377;51.734;8.950;2023-04-02T08:55:35;98155.75;;;3.52;96.06
27712;BME280;2377;51.734;8.950;2023-04-02T08:58:22;98160.63;;;3.45;95.83
27712;BME280;2377;51.734;8.950;2023-04-02T09:00:54;98159.06;;;3.44;95.04
27712;BME280;2377;51.734;8.950;2023-04-02T09:03:29;98169.50;;;3.41;94.33
27712;BME280;2377;51.734;8.950;2023-04-02T09:06:02;98176.75;;;3.52;95.40
27712;BME280;2377;51.734;8.950;2023-04-02T09:08:32;98172.97;;;3.56;96.24
27712;BME280;2377;51.734;8.950;2023-04-02T09:11:06;98177.25;;;3.56;95.54
27712;BME280;2377;51.734;8.950;2023-04-02T09:13:39;98174.88;;;3.63;93.48
27712;BME280;2377;51.734;8.950;2023-04-02T09:16:14;98173.28;;;3.70;95.05
27712;BME280;2377;51.734;8.950;2023-04-02T09:18:44;98177.22;;;3.72;93.97
27712;BME280;2377;51.734;8.950;2023-04-02T09:21:30;98181.03;;;3.68;93.14
27712;BME280;2377;51.734;8.950;2023-04-02T09:24:01;98190.66;;;3.73;94.21
27712;BME280;2377;51.734;8.950;2023-04-02T09:26:32;98203.63;;;3.70;92.01
27712;BME280;2377;51.734;8.950;2023-04-02T09:32:11;98211.34;;;3.68;92.48
27712;BME280;2377;51.734;8.950;2023-04-02T09:34:40;98214.19;;;3.73;92.87
27712;BME280;2377;51.734;8.950;2023-04-02T09:37:13;98218.31;;;3.74;93.53
27712;BME280;2377;51.734;8.950;2023-04-02T09:39:43;98218.47;;;3.73;91.80
27712;BME280;2377;51.734;8.950;2023-04-02T09:42:30;98219.25;;;3.73;92.67
27712;BME280;2377;51.734;8.950;2023-04-02T09:45:20;98230.31;;;3.80;91.94
27712;BME280;2377;51.734;8.950;2023-04-02T09:47:48;98233.63;;;3.89;92.75
27712;BME280;2377;51.734;8.950;2023-04-02T09:50:27;98238.06;;;3.95;91.63
27712;BME280;2377;51.734;8.950;2023-04-02T09:52:54;98245.00;;;4.01;91.73
27712;BME280;2377;51.734;8.950;2023-04-02T09:55:25;98251.31;;;4.06;91.36
27712;BME280;2377;51.734;8.950;2023-04-02T09:58:15;98258.59;;;4.09;91.96
27712;BME280;2377;51.734;8.950;2023-04-02T10:00:50;98270.44;;;4.16;92.22
27712;BME280;2377;51.734;8.950;2023-04-02T10:03:24;98259.53;;;4.16;90.23
27712;BME280;2377;51.734;8.950;2023-04-02T10:06:07;98266.47;;;4.22;90.95
27712;BME280;2377;51.734;8.950;2023-04-02T10:08:36;98268.06;;;4.31;88.65
27712;BME280;2377;51.734;8.950;2023-04-02T10:11:11;98274.06;;;4.38;89.36
27712;BME280;2377;51.734;8.950;2023-04-02T10:13:50;98273.88;;;4.48;87.99
27712;BME280;2377;51.734;8.950;2023-04-02T10:16:23;98274.66;;;4.57;90.21
27712;BME280;2377;51.734;8.950;2023-04-02T10:18:56;98286.66;;;4.63;87.72
27712;BME280;2377;51.734;8.950;2023-04-02T10:21:27;98288.69;;;4.68;88.17
27712;BME280;2377;51.734;8.950;2023-04-02T10:23:55;98292.34;;;4.73;87.47
27712;BME280;2377;51.734;8.950;2023-04-02T10:26:47;98301.06;;;4.71;87.63
27712;BME280;2377;51.734;8.950;2023-04-02T10:29:53;98299.41;;;4.86;88.21
27712;BME280;2377;51.734;8.950;2023-04-02T10:32:29;98308.22;;;5.06;88.00
27712;BME280;2377;51.734;8.950;2023-04-02T10:35:02;98314.66;;;5.17;85.57
27712;BME280;2377;51.734;8.950;2023-04-02T10:37:57;98305.69;;;5.38;89.59
27712;BME280;2377;51.734;8.950;2023-04-02T10:40:33;98319.56;;;5.50;88.12
27712;BME280;2377;51.734;8.950;2023-04-02T10:46:22;98318.78;;;5.49;85.92
27712;BME280;2377;51.734;8.950;2023-04-02T10:49:04;98325.03;;;5.62;87.76
27712;BME280;2377;51.734;8.950;2023-04-02T10:51:41;98327.03;;;5.75;85.93
27712;BME280;2377;51.734;8.950;2023-04-02T10:54:33;98332.13;;;5.75;82.50
27712;BME280;2377;51.734;8.950;2023-04-02T10:57:10;98335.94;;;5.70;83.30
27712;BME280;2377;51.734;8.950;2023-04-02T10:59:45;98344.50;;;5.69;83.44
27712;BME280;2377;51.734;8.950;2023-04-02T11:02:31;98352.00;;;5.63;83.87
27712;BME280;2377;51.734;8.950;2023-04-02T11:05:11;98357.78;;;5.48;80.76
27712;BME280;2377;51.734;8.950;2023-04-02T11:07:52;98364.47;;;5.41;79.92
27712;BME280;2377;51.734;8.950;2023-04-02T11:10:22;98365.25;;;5.34;80.82
27712;BME280;2377;51.734;8.950;2023-04-02T11:12:55;98368.91;;;5.31;81.20
27712;BME280;2377;51.734;8.950;2023-04-02T11:15:26;98377.50;;;5.30;80.57
27712;BME280;2377;51.734;8.950;2023-04-02T11:17:53;98370.66;;;5.30;81.92
27712;BME280;2377;51.734;8.950;2023-04-02T11:20:58;98376.38;;;5.33;82.71
27712;BME280;2377;51.734;8.950;2023-04-02T11:23:31;98384.09;;;5.39;82.29
27712;BME280;2377;51.734;8.950;2023-04-02T11:26:35;98386.94;;;5.44;81.89
27712;BME280;2377;51.734;8.950;2023-04-02T11:29:15;98386.81;;;5.38;81.49
27712;BME280;2377;51.734;8.950;2023-04-02T11:31:46;98393.13;;;5.42;79.73
27712;BME280;2377;51.734;8.950;2023-04-02T11:37:36;98403.03;;;5.20;79.50
27712;BME280;2377;51.734;8.950;2023-04-02T11:40:51;98418.69;;;5.24;80.70
27712;BME280;2377;51.734;8.950;2023-04-02T11:43:58;98413.47;;;5.25;81.45
27712;BME280;2377;51.734;8.950;2023-04-02T11:46:42;98412.81;;;5.32;82.16
27712;BME280;2377;51.734;8.950;2023-04-02T11:49:39;98411.06;;;5.32;82.71
27712;BME280;2377;51.734;8.950;2023-04-02T11:52:29;98423.75;;;5.32;79.87
27712;BME280;2377;51.734;8.950;2023-04-02T11:55:22;98427.69;;;5.26;78.02
27712;BME280;2377;51.734;8.950;2023-04-02T11:58:33;98424.69;;;5.31;79.24
27712;BME280;2377;51.734;8.950;2023-04-02T12:01:45;98428.47;;;5.35;79.02
27712;BME280;2377;51.734;8.950;2023-04-02T12:05:05;98425.44;;;5.40;80.24
27712;BME280;2377;51.734;8.950;2023-04-02T12:08:08;98427.16;;;5.47;81.67
27712;BME280;2377;51.734;8.950;2023-04-02T12:10:54;98433.97;;;5.55;80.13
27712;BME280;2377;51.734;8.950;2023-04-02T12:13:50;98429.38;;;5.50;79.24
27712;BME280;2377;51.734;8.950;2023-04-02T12:16:18;98437.00;;;5.50;80.26
27712;BME280;2377;51.734;8.950;2023-04-02T12:18:47;98439.81;;;5.56;79.05
27712;BME280;2377;51.734;8.950;2023-04-02T12:21:21;98440.66;;;5.48;78.64
27712;BME280;2377;51.734;8.950;2023-04-02T12:23:52;98445.09;;;5.46;78.96
27712;BME280;2377;51.734;8.950;2023-04-02T12:26:31;98449.19;;;5.47;79.21
27712;BME280;2377;51.734;8.950;2023-04-02T12:29:17;98446.94;;;5.60;78.58
27712;BME280;2377;51.734;8.950;2023-04-02T12:31:48;98454.78;;;5.82;79.65
27712;BME280;2377;51.734;8.950;2023-04-02T12:34:18;98458.22;;;5.89;78.71
27712;BME280;2377;51.734;8.950;2023-04-02T12:36:57;98460.47;;;5.84;77.34
27712;BME280;2377;51.734;8.950;2023-04-02T12:39:28;98461.75;;;5.80;76.92
27712;BME280;2377;51.734;8.950;2023-04-02T12:41:57;98461.41;;;5.83;77.44
27712;BME280;2377;51.734;8.950;2023-04-02T12:44:27;98471.91;;;5.80;77.45
27712;BME280;2377;51.734;8.950;2023-04-02T12:46:55;98474.16;;;5.75;77.27
27712;BME280;2377;51.734;8.950;2023-04-02T12:49:42;98487.13;;;5.80;79.42
27712;BME280;2377;51.734;8.950;2023-04-02T12:52:13;98488.81;;;5.87;77.47
27712;BME280;2377;51.734;8.950;2023-04-02T12:54:46;98493.47;;;5.84;75.93
27712;BME280;2377;51.734;8.950;2023-04-02T12:57:38;98487.25;;;5.86;77.60
27712;BME280;2377;51.734;8.950;2023-04-02T13:00:30;98502.50;;;5.78;77.16
27712;BME280;2377;51.734;8.950;2023-04-02T13:03:13;98500.44;;;5.73;77.09
27712;BME280;2377;51.734;8.950;2023-04-02T13:05:47;98508.53;;;5.77;75.87
27712;BME280;2377;51.734;8.950;2023-04-02T13:08:18;98499.31;;;5.84;75.77
27712;BME280;2377;51.734;8.950;2023-04-02T13:10:54;98509.63;;;5.83;74.90
27712;BME280;2377;51.734;8.950;2023-04-02T13:13:29;98506.63;;;5.79;75.75
27712;BME280;2377;51.734;8.950;2023-04-02T13:16:28;98520.38;;;5.85;76.57
27712;BME280;2377;51.734;8.950;2023-04-02T13:19:27;98521.66;;;5.89;75.21
27712;BME280;2377;51.734;8.950;2023-04-02T13:21:56;98513.25;;;5.97;74.77
27712;BME280;2377;51.734;8.950;2023-04-02T13:24:26;98513.38;;;6.03;74.11
27712;BME280;2377;51.734;8.950;2023-04-02T13:26:56;98516.22;;;6.08;73.95
27712;BME280;2377;51.734;8.950;2023-04-02T13:29:27;98522.19;;;6.16;73.47
27712;BME280;2377;51.734;8.950;2023-04-02T13:31:57;98516.50;;;6.13;73.27
27712;BME280;2377;51.734;8.950;2023-04-02T13:34:25;98520.63;;;6.14;73.18
27712;BME280;2377;51.734;8.950;2023-04-02T13:36:53;98510.00;;;6.11;72.62
27712;BME280;2377;51.734;8.950;2023-04-02T13:39:22;98521.75;;;6.12;72.59
27712;BME280;2377;51.734;8.950;2023-04-02T13:41:52;98526.03;;;6.11;71.87
27712;BME280;2377;51.734;8.950;2023-04-02T13:44:25;98516.22;;;6.08;71.88
27712;BME280;2377;51.734;8.950;2023-04-02T13:46:54;98507.66;;;6.09;73.39
27712;BME280;2377;51.734;8.950;2023-04-02T13:49:22;98514.28;;;6.10;72.97
27712;BME280;2377;51.734;8.950;2023-04-02T13:51:52;98526.03;;;6.11;72.78
27712;BME280;2377;51.734;8.950;2023-04-02T13:54:26;98515.91;;;6.11;73.33
27712;BME280;2377;51.734;8.950;2023-04-02T13:56:55;98520.97;;;6.11;72.13
27712;BME280;2377;51.734;8.950;2023-04-02T13:59:22;98525.41;;;6.09;72.85
27712;BME280;2377;51.734;8.950;2023-04-02T14:01:54;98531.94;;;6.04;72.11
27712;BME280;2377;51.734;8.950;2023-04-02T14:04:29;98536.25;;;5.95;70.99
27712;BME280;2377;51.734;8.950;2023-04-02T14:07:27;98543.69;;;5.97;71.68
27712;BME280;2377;51.734;8.950;2023-04-02T14:10:09;98554.97;;;5.94;71.42